sensor_id;sensor_type;location;lat;lon;timestamp;pressure;altitude;pressure_sealevel;temperature;humidity
13015;BME280;6573;57.696;11.950;2023-02-17T00:01:46;100991.34;;;8.92;100.00
13015;BME280;6573;57.696;11.950;2023-02-17T00:04:15;100994.00;;;9.00;100.00
13015;BME280;6573;57.696;11.950;2023-02-17T00:06:43;101000.13;;;8.97;100.00
13015;BME280;6573;57.696;11.950;2023-02-17T00:09:16;100973.78;;;8.82;100.00
13015;BME280;6573;57.696;11.950;2023-02-17T00:11:44;100987.88;;;8.99;100.00
13015;BME280;6573;57.696;11.950;2023-02-17T00:14:13;100988.75;;;9.00;100.00
13015;BME280;6573;57.696;11.950;2023-02-17T00:16:43;100983.47;;;8.92;100.00
13015;BME280;6573;57.696;11.950;2023-02-17T00:19:12;100976.44;;;8.87;100.00
13015;BME280;6573;57.696;11.950;2023-02-17T00:21:57;100977.22;;;8.75;100.00
13015;BME280;6573;57.696;11.950;2023-02-17T00:24:29;100974.72;;;8.96;100.00
13015;BME280;6573;57.696;11.950;2023-02-17T00:26:57;100968.63;;;8.97;100.00
13015;BME280;6573;57.696;11.950;2023-02-17T00:29:28;100970.41;;;9.01;100.00
13015;BME280;6573;57.696;11.950;2023-02-17T00:31:56;100959.91;;;9.00;100.00
13015;BME280;6573;57.696;11.950;2023-02-17T00:34:25;100952.94;;;9.06;100.00
13015;BME280;6573;57.696;11.950;2023-02-17T00:36:54;100952.97;;;9.09;100.00
13015;BME280;6573;57.696;11.950;2023-02-17T00:39:22;100949.44;;;9.04;100.00
13015;BME280;6573;57.696;11.950;2023-02-17T00:41:56;100941.53;;;9.01;100.00
13015;BME280;6573;57.696;11.950;2023-02-17T00:44:24;100945.94;;;9.02;100.00
13015;BME280;6573;57.696;11.950;2023-02-17T00:46:52;100937.22;;;9.13;100.00
13015;BME280;6573;57.696;11.950;2023-02-17T00:49:22;100938.09;;;9.10;100.00
13015;BME280;6573;57.696;11.950;2023-02-17T00:51:52;100931.03;;;9.01;100.00
13015;BME280;6573;57.696;11.950;2023-02-17T00:54:23;100946.78;;;9.01;100.00
13015;BME280;6573;57.696;11.950;2023-02-17T00:56:53;100919.63;;;8.93;100.00
13015;BME280;6573;57.696;11.950;2023-02-17T00:59:22;100918.78;;;8.99;100.00
13015;BME280;6573;57.696;11.950;2023-02-17T01:01:50;100917.91;;;9.01;100.00
13015;BME280;6573;57.696;11.950;2023-02-17T01:04:19;100924.06;;;9.05;100.00
13015;BME280;6573;57.696;11.950;2023-02-17T01:06:47;100892.53;;;8.94;100.00
13015;BME280;6573;57.696;11.950;2023-02-17T01:09:16;100900.47;;;9.05;100.00
13015;BME280;6573;57.696;11.950;2023-02-17T01:11:44;100896.94;;;9.04;100.00
13015;BME280;6573;57.696;11.950;2023-02-17T01:14:14;100896.94;;;9.01;100.00
13015;BME280;6573;57.696;11.950;2023-02-17T01:16:45;100898.75;;;9.15;100.00
13015;BME280;6573;57.696;11.950;2023-02-17T01:19:16;100884.72;;;9.09;100.00
13015;BME280;6573;57.696;11.950;2023-02-17T01:21:45;100884.69;;;9.00;100.00
13015;BME280;6573;57.696;11.950;2023-02-17T01:24:14;100885.63;;;9.15;100.00
13015;BME280;6573;57.696;11.950;2023-02-17T01:26:42;100882.13;;;9.13;100.00
13015;BME280;6573;57.696;11.950;2023-02-17T01:29:10;100879.50;;;9.13;100.00
13015;BME280;6573;57.696;11.950;2023-02-17T01:31:40;100869.81;;;8.98;100.00
13015;BME280;6573;57.696;11.950;2023-02-17T01:34:09;100868.09;;;9.04;100.00
13015;BME280;6573;57.696;11.950;2023-02-17T01:36:37;100857.53;;;8.94;100.00
13015;BME280;6573;57.696;11.950;2023-02-17T01:39:06;100860.22;;;9.04;100.00
13015;BME280;6573;57.696;11.950;2023-02-17T01:41:34;100856.69;;;8.99;100.00
13015;BME280;6573;57.696;11.950;2023-02-17T01:44:09;100851.44;;;8.99;100.00
13015;BME280;6573;57.696;11.950;2023-02-17T01:46:40;100844.44;;;8.98;100.00
13015;BME280;6573;57.696;11.950;2023-02-17T01:49:18;100839.16;;;8.89;100.00
13015;BME280;6573;57.696;11.950;2023-02-17T01:51:51;100837.38;;;8.88;100.00
13015;BME280;6573;57.696;11.950;2023-02-17T01:54:24;100822.53;;;8.83;100.00
13015;BME280;6573;57.696;11.950;2023-02-17T01:56:54;100816.41;;;8.85;100.00
13015;BME280;6573;57.696;11.950;2023-02-17T01:59:25;100811.19;;;8.85;100.00
13015;BME280;6573;57.696;11.950;2023-02-17T02:01:59;100810.28;;;8.80;100.00
13015;BME280;6573;57.696;11.950;2023-02-17T02:04:34;100811.19;;;8.85;100.00
13015;BME280;6573;57.696;11.950;2023-02-17T02:07:05;100811.19;;;8.85;100.00
13015;BME280;6573;57.696;11.950;2023-02-17T02:09:40;100810.25;;;8.83;100.00
13015;BME280;6573;57.696;11.950;2023-02-17T02:12:18;100797.16;;;8.77;100.00
13015;BME280;6573;57.696;11.950;2023-02-17T02:14:47;100795.44;;;8.85;100.00
13015;BME280;6573;57.696;11.950;2023-02-17T02:17:25;100790.97;;;8.65;100.00
13015;BME280;6573;57.696;11.950;2023-02-17T02:20:28;100790.00;;;8.43;100.00
13015;BME280;6573;57.696;11.950;2023-02-17T02:23:25;100769.88;;;8.42;100.00
13015;BME280;6573;57.696;11.950;2023-02-17T02:26:23;100781.22;;;8.38;100.00
13015;BME280;6573;57.696;11.950;2023-02-17T02:29:19;100762.84;;;8.36;100.00
13015;BME280;6573;57.696;11.950;2023-02-17T02:31:58;100756.78;;;8.45;100.00
13015;BME280;6573;57.696;11.950;2023-02-17T02:34:36;100742.81;;;8.43;100.00
13015;BME280;6573;57.696;11.950;2023-02-17T02:37:10;100721.81;;;8.37;100.00
13015;BME280;6573;57.696;11.950;2023-02-17T02:39:43;100751.50;;;8.39;100.00
13015;BME280;6573;57.696;11.950;2023-02-17T02:42:16;100735.84;;;8.48;100.00
13015;BME280;6573;57.696;11.950;2023-02-17T02:44:45;100735.84;;;8.54;100.00
13015;BME280;6573;57.696;11.950;2023-02-17T02:47:41;100721.91;;;8.58;100.00
13015;BME280;6573;57.696;11.950;2023-02-17T02:50:13;100700.03;;;8.56;100.00
13015;BME280;6573;57.696;11.950;2023-02-17T02:52:50;100708.78;;;8.55;100.00
13015;BME280;6573;57.696;11.950;2023-02-17T02:55:29;100713.19;;;8.68;100.00
13015;BME280;6573;57.696;11.950;2023-02-17T02:58:05;100695.69;;;8.61;100.00
13015;BME280;6573;57.696;11.950;2023-02-17T03:00:40;100707.97;;;8.83;100.00
13015;BME280;6573;57.696;11.950;2023-02-17T03:03:16;100707.94;;;8.62;100.00
13015;BME280;6573;57.696;11.950;2023-02-17T03:05:51;100703.56;;;8.67;100.00
13015;BME280;6573;57.696;11.950;2023-02-17T03:08:26;100698.31;;;8.60;100.00
13015;BME280;6573;57.696;11.950;2023-02-17T03:10:56;100674.66;;;8.49;100.00
13015;BME280;6573;57.696;11.950;2023-02-17T03:13:25;100646.66;;;8.33;100.00
13015;BME280;6573;57.696;11.950;2023-02-17T03:15:53;100677.31;;;8.61;100.00
13015;BME280;6573;57.696;11.950;2023-02-17T03:18:21;100660.75;;;8.68;100.00
13015;BME280;6573;57.696;11.950;2023-02-17T03:20:53;100655.44;;;8.47;100.00
13015;BME280;6573;57.696;11.950;2023-02-17T03:23:23;100615.19;;;8.30;100.00
13015;BME280;6573;57.696;11.950;2023-02-17T03:25:51;100653.75;;;8.58;100.00
13015;BME280;6573;57.696;11.950;2023-02-17T03:28:19;100633.63;;;8.56;100.00
13015;BME280;6573;57.696;11.950;2023-02-17T03:30:47;100638.00;;;8.55;100.00
13015;BME280;6573;57.696;11.950;2023-02-17T03:33:16;100615.28;;;8.57;100.00
13015;BME280;6573;57.696;11.950;2023-02-17T03:35:44;100617.03;;;8.73;100.00
13015;BME280;6573;57.696;11.950;2023-02-17T03:38:17;100622.31;;;8.79;100.00
13015;BME280;6573;57.696;11.950;2023-02-17T03:40:45;100609.19;;;8.79;100.00
13015;BME280;6573;57.696;11.950;2023-02-17T03:43:15;100599.56;;;8.84;100.00
13015;BME280;6573;57.696;11.950;2023-02-17T03:45:43;100589.09;;;8.84;100.00
13015;BME280;6573;57.696;11.950;2023-02-17T03:48:12;100590.84;;;8.94;100.00
13015;BME280;6573;57.696;11.950;2023-02-17T03:50:40;100582.09;;;8.98;100.00
13015;BME280;6573;57.696;11.950;2023-02-17T03:53:10;100554.97;;;8.78;100.00
13015;BME280;6573;57.696;11.950;2023-02-17T03:55:39;100547.13;;;8.75;100.00
13015;BME280;6573;57.696;11.950;2023-02-17T03:58:07;100550.63;;;8.80;100.00
13015;BME280;6573;57.696;11.950;2023-02-17T04:00:36;100540.09;;;8.83;100.00
13015;BME280;6573;57.696;11.950;2023-02-17T04:03:04;100538.38;;;8.76;100.00
13015;BME280;6573;57.696;11.950;2023-02-17T04:05:32;100523.50;;;8.89;100.00
13015;BME280;6573;57.696;11.950;2023-02-17T04:08:01;100514.75;;;9.03;100.00
13015;BME280;6573;57.696;11.950;2023-02-17T04:10:29;100520.00;;;9.00;100.00
13015;BME280;6573;57.696;11.950;2023-02-17T04:12:59;100513.91;;;8.92;100.00
13015;BME280;6573;57.696;11.950;2023-02-17T04:15:27;100512.13;;;8.94;100.00
13015;BME280;6573;57.696;11.950;2023-02-17T04:17:56;100469.31;;;8.79;100.00
13015;BME280;6573;57.696;11.950;2023-02-17T04:20:24;100496.38;;;9.06;100.00
13015;BME280;6573;57.696;11.950;2023-02-17T04:22:53;100491.16;;;8.97;100.00
13015;BME280;6573;57.696;11.950;2023-02-17T04:25:21;100496.41;;;9.00;100.00
13015;BME280;6573;57.696;11.950;2023-02-17T04:27:49;100485.94;;;8.85;100.00
13015;BME280;6573;57.696;11.950;2023-02-17T04:30:19;100447.47;;;8.75;100.00
13015;BME280;6573;57.696;11.950;2023-02-17T04:32:47;100471.94;;;8.92;100.00
13015;BME280;6573;57.696;11.950;2023-02-17T04:35:15;100461.44;;;8.92;100.00
13015;BME280;6573;57.696;11.950;2023-02-17T04:37:44;100459.69;;;8.97;100.00
13015;BME280;6573;57.696;11.950;2023-02-17T04:40:12;100452.66;;;8.93;100.00
13015;BME280;6573;57.696;11.950;2023-02-17T04:42:41;100440.44;;;8.86;100.00
13015;BME280;6573;57.696;11.950;2023-02-17T04:45:10;100442.19;;;8.93;100.00
13015;BME280;6573;57.696;11.950;2023-02-17T04:47:40;100429.09;;;8.87;100.00
13015;BME280;6573;57.696;11.950;2023-02-17T04:50:09;100424.72;;;8.83;100.00
13015;BME280;6573;57.696;11.950;2023-02-17T04:52:38;100417.75;;;8.85;100.00
13015;BME280;6573;57.696;11.950;2023-02-17T04:55:06;100410.75;;;8.87;100.00
13015;BME280;6573;57.696;11.950;2023-02-17T04:57:35;100402.03;;;8.61;100.00
13015;BME280;6573;57.696;11.950;2023-02-17T05:00:04;100382.81;;;8.68;100.00
13015;BME280;6573;57.696;11.950;2023-02-17T05:02:33;100376.63;;;8.86;100.00
13015;BME280;6573;57.696;11.950;2023-02-17T05:05:02;100376.63;;;8.89;100.00
13015;BME280;6573;57.696;11.950;2023-02-17T05:07:31;100358.28;;;8.87;100.00
13015;BME280;6573;57.696;11.950;2023-02-17T05:10:00;100351.28;;;8.83;100.00
13015;BME280;6573;57.696;11.950;2023-02-17T05:12:28;100340.78;;;8.92;100.00
13015;BME280;6573;57.696;11.950;2023-02-17T05:14:56;100342.50;;;8.96;100.00
13015;BME280;6573;57.696;11.950;2023-02-17T05:17:24;100341.63;;;8.91;100.00
13015;BME280;6573;57.696;11.950;2023-02-17T05:19:52;100332.06;;;8.81;100.00
13015;BME280;6573;57.696;11.950;2023-02-17T05:22:23;100315.44;;;8.84;100.00
13015;BME280;6573;57.696;11.950;2023-02-17T05:24:51;100312.84;;;8.85;100.00
13015;BME280;6573;57.696;11.950;2023-02-17T05:27:20;100305.81;;;8.87;100.00
13015;BME280;6573;57.696;11.950;2023-02-17T05:29:48;100300.56;;;8.90;100.00
13015;BME280;6573;57.696;11.950;2023-02-17T05:32:17;100283.09;;;8.86;100.00
13015;BME280;6573;57.696;11.950;2023-02-17T05:34:46;100279.59;;;8.90;100.00
13015;BME280;6573;57.696;11.950;2023-02-17T05:37:14;100261.19;;;8.95;100.00
13015;BME280;6573;57.696;11.950;2023-02-17T05:39:44;100239.34;;;8.94;100.00
13015;BME280;6573;57.696;11.950;2023-02-17T05:42:12;100249.81;;;9.00;100.00
13015;BME280;6573;57.696;11.950;2023-02-17T05:44:41;100232.25;;;9.08;100.00
13015;BME280;6573;57.696;11.950;2023-02-17T05:47:09;100220.03;;;9.04;100.00
13015;BME280;6573;57.696;11.950;2023-02-17T05:49:37;100203.47;;;8.99;100.00
13015;BME280;6573;57.696;11.950;2023-02-17T05:52:06;100196.53;;;8.89;100.00
13015;BME280;6573;57.696;11.950;2023-02-17T05:54:34;100165.91;;;8.91;100.00
13015;BME280;6573;57.696;11.950;2023-02-17T05:57:04;100167.84;;;8.65;100.00
13015;BME280;6573;57.696;11.950;2023-02-17T05:59:33;100132.09;;;8.46;100.00
13015;BME280;6573;57.696;11.950;2023-02-17T06:02:01;100169.38;;;8.93;100.00
13015;BME280;6573;57.696;11.950;2023-02-17T06:04:29;100158.81;;;9.04;100.00
13015;BME280;6573;57.696;11.950;2023-02-17T06:06:57;100160.53;;;9.09;100.00
13015;BME280;6573;57.696;11.950;2023-02-17T06:09:26;100162.31;;;9.04;100.00
13015;BME280;6573;57.696;11.950;2023-02-17T06:11:54;100155.31;;;9.03;100.00
13015;BME280;6573;57.696;11.950;2023-02-17T06:14:24;100146.59;;;9.01;100.00
13015;BME280;6573;57.696;11.950;2023-02-17T06:16:52;100141.34;;;9.01;100.00
13015;BME280;6573;57.696;11.950;2023-02-17T06:19:22;100130.91;;;8.97;100.00
13015;BME280;6573;57.696;11.950;2023-02-17T06:21:51;100122.97;;;9.07;100.00
13015;BME280;6573;57.696;11.950;2023-02-17T06:24:19;100102.97;;;8.91;100.00
13015;BME280;6573;57.696;11.950;2023-02-17T06:26:50;100107.16;;;9.10;100.00
13015;BME280;6573;57.696;11.950;2023-02-17T06:29:19;100098.41;;;9.13;100.00
13015;BME280;6573;57.696;11.950;2023-02-17T06:31:49;100090.59;;;9.07;100.00
13015;BME280;6573;57.696;11.950;2023-02-17T06:34:19;100052.28;;;8.86;100.00
13015;BME280;6573;57.696;11.950;2023-02-17T06:36:47;100083.59;;;9.07;100.00
13015;BME280;6573;57.696;11.950;2023-02-17T06:39:16;100078.41;;;9.01;100.00
13015;BME280;6573;57.696;11.950;2023-02-17T06:41:44;100072.31;;;8.96;100.00
13015;BME280;6573;57.696;11.950;2023-02-17T06:44:13;100071.38;;;9.03;100.00
13015;BME280;6573;57.696;11.950;2023-02-17T06:46:44;100073.13;;;9.04;100.00
13015;BME280;6573;57.696;11.950;2023-02-17T06:49:16;100069.69;;;8.99;100.00
13015;BME280;6573;57.696;11.950;2023-02-17T06:51:44;100050.50;;;8.91;100.00
13015;BME280;6573;57.696;11.950;2023-02-17T06:54:13;100015.53;;;8.92;100.00
13015;BME280;6573;57.696;11.950;2023-02-17T06:56:41;100022.31;;;9.15;100.00
13015;BME280;6573;57.696;11.950;2023-02-17T06:59:09;100022.31;;;9.15;100.00
13015;BME280;6573;57.696;11.950;2023-02-17T07:01:37;100011.88;;;9.08;100.00
13015;BME280;6573;57.696;11.950;2023-02-17T07:04:06;100013.66;;;9.06;100.00
13015;BME280;6573;57.696;11.950;2023-02-17T07:06:35;100011.06;;;9.05;100.00
13015;BME280;6573;57.696;11.950;2023-02-17T07:09:04;100001.25;;;9.21;100.00
13015;BME280;6573;57.696;11.950;2023-02-17T07:11:32;99997.63;;;9.34;100.00
13015;BME280;6573;57.696;11.950;2023-02-17T07:14:01;99987.91;;;9.42;100.00
13015;BME280;6573;57.696;11.950;2023-02-17T07:16:29;99976.66;;;9.31;100.00
13015;BME280;6573;57.696;11.950;2023-02-17T07:18:58;99994.06;;;9.38;100.00
13015;BME280;6573;57.696;11.950;2023-02-17T07:21:26;99978.38;;;9.35;100.00
13015;BME280;6573;57.696;11.950;2023-02-17T07:23:56;99987.13;;;9.34;100.00
13015;BME280;6573;57.696;11.950;2023-02-17T07:26:24;99968.78;;;9.32;100.00
13015;BME280;6573;57.696;11.950;2023-02-17T07:28:53;99934.03;;;9.12;100.00
13015;BME280;6573;57.696;11.950;2023-02-17T07:31:21;99952.22;;;9.26;100.00
13015;BME280;6573;57.696;11.950;2023-02-17T07:33:49;99936.44;;;9.29;100.00
13015;BME280;6573;57.696;11.950;2023-02-17T07:36:18;99899.69;;;9.29;100.00
13015;BME280;6573;57.696;11.950;2023-02-17T07:38:47;99865.78;;;9.15;100.00
13015;BME280;6573;57.696;11.950;2023-02-17T07:41:18;99909.22;;;9.39;100.00
13015;BME280;6573;57.696;11.950;2023-02-17T07:43:54;99884.81;;;9.31;100.00
13015;BME280;6573;57.696;11.950;2023-02-17T07:46:23;99902.19;;;9.42;100.00
13015;BME280;6573;57.696;11.950;2023-02-17T07:48:52;99894.19;;;9.50;100.00
13015;BME280;6573;57.696;11.950;2023-02-17T07:51:21;99890.97;;;9.30;100.00
13015;BME280;6573;57.696;11.950;2023-02-17T07:53:52;99874.16;;;9.44;100.00
13015;BME280;6573;57.696;11.950;2023-02-17T07:56:23;99876.69;;;9.49;100.00
13015;BME280;6573;57.696;11.950;2023-02-17T07:58:52;99870.59;;;9.47;100.00
13015;BME280;6573;57.696;11.950;2023-02-17T08:01:22;99857.44;;;9.50;100.00
13015;BME280;6573;57.696;11.950;2023-02-17T08:03:51;99846.25;;;9.37;100.00
13015;BME280;6573;57.696;11.950;2023-02-17T08:06:24;99828.00;;;9.27;100.00
13015;BME280;6573;57.696;11.950;2023-02-17T08:08:53;99815.75;;;9.26;100.00
13015;BME280;6573;57.696;11.950;2023-02-17T08:11:41;99810.31;;;9.41;100.00
13015;BME280;6573;57.696;11.950;2023-02-17T08:14:28;99808.41;;;9.52;100.00
13015;BME280;6573;57.696;11.950;2023-02-17T08:16:57;99790.88;;;9.54;100.00
13015;BME280;6573;57.696;11.950;2023-02-17T08:19:26;99761.47;;;9.31;100.00
13015;BME280;6573;57.696;11.950;2023-02-17T08:22:12;99768.19;;;9.50;100.00
13015;BME280;6573;57.696;11.950;2023-02-17T08:24:43;99747.31;;;9.41;100.00
13015;BME280;6573;57.696;11.950;2023-02-17T08:27:14;99752.44;;;9.48;100.00
13015;BME280;6573;57.696;11.950;2023-02-17T08:29:43;99743.69;;;9.48;100.00
13015;BME280;6573;57.696;11.950;2023-02-17T08:32:13;99727.03;;;9.50;100.00
13015;BME280;6573;57.696;11.950;2023-02-17T08:34:43;99708.97;;;9.31;100.00
13015;BME280;6573;57.696;11.950;2023-02-17T08:37:13;99710.69;;;9.35;100.00
13015;BME280;6573;57.696;11.950;2023-02-17T08:39:41;99706.16;;;9.44;100.00
13015;BME280;6573;57.696;11.950;2023-02-17T08:42:09;99701.72;;;9.48;100.00
13015;BME280;6573;57.696;11.950;2023-02-17T08:44:39;99700.06;;;9.41;100.00
13015;BME280;6573;57.696;11.950;2023-02-17T08:47:07;99687.91;;;9.37;100.00
13015;BME280;6573;57.696;11.950;2023-02-17T08:49:39;99679.00;;;9.47;100.00
13015;BME280;6573;57.696;11.950;2023-02-17T08:52:07;99675.53;;;9.45;100.00
13015;BME280;6573;57.696;11.950;2023-02-17T08:54:35;99666.81;;;9.41;100.00
13015;BME280;6573;57.696;11.950;2023-02-17T08:57:04;99663.44;;;9.35;100.00
13015;BME280;6573;57.696;11.950;2023-02-17T08:59:32;99628.53;;;9.30;100.00
13015;BME280;6573;57.696;11.950;2023-02-17T09:02:04;99645.88;;;9.40;100.00
13015;BME280;6573;57.696;11.950;2023-02-17T09:04:33;99614.44;;;9.37;100.00
13015;BME280;6573;57.696;11.950;2023-02-17T09:07:02;99626.44;;;9.50;100.00
13015;BME280;6573;57.696;11.950;2023-02-17T09:09:30;99629.22;;;9.42;100.00
13015;BME280;6573;57.696;11.950;2023-02-17T09:12:00;99599.47;;;9.40;100.00
13015;BME280;6573;57.696;11.950;2023-02-17T09:14:33;99600.34;;;9.42;100.00
13015;BME280;6573;57.696;11.950;2023-02-17T09:17:02;99586.44;;;9.36;100.00
13015;BME280;6573;57.696;11.950;2023-02-17T09:19:38;99581.03;;;9.45;100.00
13015;BME280;6573;57.696;11.950;2023-02-17T09:22:07;99576.03;;;9.33;100.00
13015;BME280;6573;57.696;11.950;2023-02-17T09:24:43;99542.56;;;9.44;100.00
13015;BME280;6573;57.696;11.950;2023-02-17T09:27:14;99543.19;;;9.56;100.00
13015;BME280;6573;57.696;11.950;2023-02-17T09:29:42;99525.78;;;9.52;100.00
13015;BME280;6573;57.696;11.950;2023-02-17T09:32:11;99523.94;;;9.56;100.00
13015;BME280;6573;57.696;11.950;2023-02-17T09:34:41;99530.69;;;9.69;100.00
13015;BME280;6573;57.696;11.950;2023-02-17T09:37:15;99498.38;;;9.67;100.00
13015;BME280;6573;57.696;11.950;2023-02-17T09:39:45;99501.81;;;9.69;100.00
13015;BME280;6573;57.696;11.950;2023-02-17T09:42:17;99476.69;;;9.57;100.00
13015;BME280;6573;57.696;11.950;2023-02-17T09:44:48;99473.19;;;9.57;100.00
13015;BME280;6573;57.696;11.950;2023-02-17T09:47:22;99461.00;;;9.54;100.00
13015;BME280;6573;57.696;11.950;2023-02-17T09:49:59;99454.75;;;9.60;100.00
13015;BME280;6573;57.696;11.950;2023-02-17T09:52:32;99445.75;;;9.70;100.00
13015;BME280;6573;57.696;11.950;2023-02-17T09:55:05;99450.22;;;9.66;100.00
13015;BME280;6573;57.696;11.950;2023-02-17T09:57:36;99445.66;;;9.76;100.00
13015;BME280;6573;57.696;11.950;2023-02-17T10:00:10;99444.06;;;9.69;100.00
13015;BME280;6573;57.696;11.950;2023-02-17T10:02:45;99416.97;;;9.65;100.00
13015;BME280;6573;57.696;11.950;2023-02-17T10:05:22;99415.16;;;9.69;100.00
13015;BME280;6573;57.696;11.950;2023-02-17T10:07:58;99388.09;;;9.67;100.00
13015;BME280;6573;57.696;11.950;2023-02-17T10:10:31;99384.66;;;9.65;100.00
13015;BME280;6573;57.696;11.950;2023-02-17T10:13:03;99395.06;;;9.68;100.00
13015;BME280;6573;57.696;11.950;2023-02-17T10:15:35;99388.16;;;9.64;100.00
13015;BME280;6573;57.696;11.950;2023-02-17T10:18:10;99372.41;;;9.64;100.00
13015;BME280;6573;57.696;11.950;2023-02-17T10:20:46;99350.53;;;9.63;100.00
13015;BME280;6573;57.696;11.950;2023-02-17T10:23:19;99339.31;;;9.57;100.00
13015;BME280;6573;57.696;11.950;2023-02-17T10:26:05;99319.06;;;9.62;100.00
13015;BME280;6573;57.696;11.950;2023-02-17T10:28:43;99320.50;;;9.75;100.00
13015;BME280;6573;57.696;11.950;2023-02-17T10:31:23;99290.03;;;9.68;100.00
13015;BME280;6573;57.696;11.950;2023-02-17T10:34:00;99274.16;;;9.74;100.00
13015;BME280;6573;57.696;11.950;2023-02-17T10:36:37;99244.66;;;9.63;100.00
13015;BME280;6573;57.696;11.950;2023-02-17T10:39:13;99185.03;;;9.33;100.00
13015;BME280;6573;57.696;11.950;2023-02-17T10:41:46;99214.00;;;9.65;100.00
13015;BME280;6573;57.696;11.950;2023-02-17T10:44:18;99233.47;;;9.90;100.00
13015;BME280;6573;57.696;11.950;2023-02-17T10:46:49;99218.81;;;9.82;100.00
13015;BME280;6573;57.696;11.950;2023-02-17T10:49:24;99210.88;;;9.83;100.00
13015;BME280;6573;57.696;11.950;2023-02-17T10:52:00;99213.31;;;9.91;100.00
13015;BME280;6573;57.696;11.950;2023-02-17T10:54:35;99181.03;;;9.87;100.00
13015;BME280;6573;57.696;11.950;2023-02-17T10:57:09;99198.34;;;9.94;100.00
13015;BME280;6573;57.696;11.950;2023-02-17T10:59:40;99185.63;;;9.79;100.00
13015;BME280;6573;57.696;11.950;2023-02-17T11:02:20;99159.94;;;9.90;100.00
13015;BME280;6573;57.696;11.950;2023-02-17T11:04:52;99149.53;;;9.87;100.00
13015;BME280;6573;57.696;11.950;2023-02-17T11:07:30;99116.28;;;9.86;100.00
13015;BME280;6573;57.696;11.950;2023-02-17T11:10:15;99130.31;;;9.85;100.00
13015;BME280;6573;57.696;11.950;2023-02-17T11:12:46;99093.50;;;9.87;100.00
13015;BME280;6573;57.696;11.950;2023-02-17T11:15:18;99074.00;;;9.95;100.00
13015;BME280;6573;57.696;11.950;2023-02-17T11:17:50;99061.72;;;9.97;100.00
13015;BME280;6573;57.696;11.950;2023-02-17T11:20:30;99066.97;;;9.97;100.00
13015;BME280;6573;57.696;11.950;2023-02-17T11:23:07;99075.53;;;10.02;100.00
13015;BME280;6573;57.696;11.950;2023-02-17T11:26:00;99035.88;;;9.82;100.00
13015;BME280;6573;57.696;11.950;2023-02-17T11:28:32;99048.09;;;9.83;100.00
13015;BME280;6573;57.696;11.950;2023-02-17T11:31:00;99035.53;;;9.94;100.00
13015;BME280;6573;57.696;11.950;2023-02-17T11:33:33;99014.59;;;9.91;100.00
13015;BME280;6573;57.696;11.950;2023-02-17T11:36:06;99000.81;;;9.83;100.00
13015;BME280;6573;57.696;11.950;2023-02-17T11:38:44;98984.59;;;9.69;100.00
13015;BME280;6573;57.696;11.950;2023-02-17T11:41:15;98986.78;;;9.84;100.00
13015;BME280;6573;57.696;11.950;2023-02-17T11:43:51;98959.94;;;9.74;100.00
13015;BME280;6573;57.696;11.950;2023-02-17T11:46:25;98957.00;;;9.85;100.00
13015;BME280;6573;57.696;11.950;2023-02-17T11:52:16;98920.97;;;9.61;100.00
13015;BME280;6573;57.696;11.950;2023-02-17T11:55:07;98943.69;;;9.62;100.00
13015;BME280;6573;57.696;11.950;2023-02-17T11:57:47;98908.47;;;9.69;100.00
13015;BME280;6573;57.696;11.950;2023-02-17T12:00:23;98920.44;;;9.79;100.00
13015;BME280;6573;57.696;11.950;2023-02-17T12:03:19;98912.47;;;9.82;100.00
13015;BME280;6573;57.696;11.950;2023-02-17T12:06:03;98912.97;;;9.93;100.00
13015;BME280;6573;57.696;11.950;2023-02-17T12:08:46;98897.22;;;9.93;100.00
13015;BME280;6573;57.696;11.950;2023-02-17T12:11:25;98876.31;;;9.90;100.00
13015;BME280;6573;57.696;11.950;2023-02-17T12:14:10;98877.88;;;9.97;100.00
13015;BME280;6573;57.696;11.950;2023-02-17T12:16:45;98850.03;;;9.90;100.00
13015;BME280;6573;57.696;11.950;2023-02-17T12:19:29;98858.47;;;10.01;100.00
13015;BME280;6573;57.696;11.950;2023-02-17T12:22:12;98852.91;;;10.10;100.00
13015;BME280;6573;57.696;11.950;2023-02-17T12:24:57;98827.66;;;10.06;100.00
13015;BME280;6573;57.696;11.950;2023-02-17T12:27:46;98819.78;;;10.06;100.00
13015;BME280;6573;57.696;11.950;2023-02-17T12:30:29;98817.56;;;10.20;100.00
13015;BME280;6573;57.696;11.950;2023-02-17T12:33:12;98810.81;;;10.13;100.00
13015;BME280;6573;57.696;11.950;2023-02-17T12:35:48;98809.16;;;10.09;100.00
13015;BME280;6573;57.696;11.950;2023-02-17T12:38:25;98801.81;;;10.20;100.00
13015;BME280;6573;57.696;11.950;2023-02-17T12:40:59;98769.97;;;10.03;100.00
13015;BME280;6573;57.696;11.950;2023-02-17T12:43:36;98790.88;;;10.32;100.00
13015;BME280;6573;57.696;11.950;2023-02-17T12:46:10;98761.28;;;10.27;100.00
13015;BME280;6573;57.696;11.950;2023-02-17T12:48:42;98764.75;;;10.29;100.00
13015;BME280;6573;57.696;11.950;2023-02-17T12:51:17;98775.56;;;10.45;100.00
13015;BME280;6573;57.696;11.950;2023-02-17T12:53:53;98756.25;;;10.46;100.00
13015;BME280;6573;57.696;11.950;2023-02-17T12:59:31;98749.16;;;10.23;100.00
13015;BME280;6573;57.696;11.950;2023-02-17T13:02:02;98744.78;;;10.49;100.00
13015;BME280;6573;57.696;11.950;2023-02-17T13:04:33;98734.16;;;10.52;100.00
13015;BME280;6573;57.696;11.950;2023-02-17T13:07:08;98746.97;;;10.61;100.00
13015;BME280;6573;57.696;11.950;2023-02-17T13:09:40;98725.75;;;10.65;100.00
13015;BME280;6573;57.696;11.950;2023-02-17T13:14:56;98707.94;;;10.73;100.00
13015;BME280;6573;57.696;11.950;2023-02-17T13:17:26;98704.34;;;10.76;100.00
13015;BME280;6573;57.696;11.950;2023-02-17T13:20:27;98676.91;;;10.83;100.00
13015;BME280;6573;57.696;11.950;2023-02-17T13:23:07;98669.75;;;10.86;100.00
13015;BME280;6573;57.696;11.950;2023-02-17T13:25:40;98695.16;;;11.09;100.00
13015;BME280;6573;57.696;11.950;2023-02-17T13:28:33;98694.94;;;11.15;100.00